New Chicago, Indiana
Current Conditions -  °F | °C
As of 5:45 AM on Friday 31 Oct 2014 (Local Time) from KGYY Reporting Station
Drizzle Drizzle  
Wind Chill: 34°   Ceiling: 5000
Heat Index: 43°   Visibility: 10mi
Dew Point: 34°   Wind: 20mph
Humidity: 70%   Direction: 300°WNW
Pressure: 30.04"   Gusts: 33mph
Location:  41.5196°N, 87.2427°W
Report Text: KGYY 311045Z 30017G29KT 10SM -DZ SCT032 OVC050 06/01 A3004
Loading
Personal Weather Stations






























Interactive Weather Map
Tropical Storm Tracking
New forecast layout! Learn more

10-Day Weather Forecast

Advertisements
Track Severe Weather on mobile